Camilo Daza International Airport
SKCC : now visible

Airfield :











YOU CAN JOIN US ON...

 
LOGIN :

Register | Disclaimer

   EN    FR    IT 

 









Legend :    VFR   Marginal VFR   IFR   Intensive IFR   Very Intensive IFR
Visi :
Ceiling :
>= 8 km
>= 3000ft
5 to 8 km
1000 to 3000 ft
1500m to 5 km
500 to 1000 ft
800 to 1500m
200 to 500 ft
< 800m
< 200 ft
Symbols :   Thunderstorms  Fog  Heavy snow  Heavy precipitations  Wind > 20 kt






- Airport Elevation : 1096 ft
- IATA code : CUC


SKCC - Camilo Daza International

CURRENT METAR :
  • 270500Z VRB02KT 9999 SCT015 23/21 A3000

EXPIRED METARs :
  • 270400Z 00000KT 9999 SCT015 23/21 A3000
  • 270300Z 12004KT 9999 SCT015 24/22 A3001

TAF TAF SKCC
Valid from the 27 at 00:00 until the 28 at 00:00 UTC


262230Z 2700/2724 01006KT 9999 SCT015 BKN080
PROB40
TEMPO 2710/2712 5000 DZ BCFG BKN012
BECMG 2715/2717 36010KT TX26/2719Z TN23/2711Z



MET'MAP, your aeronautical weather chart ! - Copyright ORBIFLY December 2007 - Disclaimer

ORBIFLY MET'MAP TEAM :

Programming & Development : Alexandra Zaïnal
Concept & original design : Baudouin d'Aumeries
Assistance for programming : Marc-Olivier Méhu
Technical & hardware support : Manuel Goepfert

Contact : metmap@orbifly.com




SOURCES & CREDITS :

   NOAA       Earth
Advisory